16 sierpnia 2022

Czas Kod Pogoda Temp. Widoczność Sufit Wiatr METAR/SPECI
14:25
V
22 °C 10 km+ 17.000 ft 250° 250° 13 kt METAR EHVL 161225Z AUTO 25013KT 9999 OVC170 22/18 Q1008 BLU
13:55
V
22 °C 10 km+ 24.000 ft 250° 250° 12 kt METAR EHVL 161155Z AUTO 25012KT 9999 FEW009 SCT180 OVC240 22/18 Q1008 BLU
13:25
I
21 °C 10 km+ 700 ft 250° 250° 13 kt METAR EHVL 161125Z AUTO 25013KT 9999 BKN007 OVC008 21/18 Q1007 GRN
12:55
V
22 °C 10 km+ - 250° 250° 13 kt METAR EHVL 161055Z AUTO 25013KT 9999 SCT008 22/18 Q1007 GRN
12:25
V
22 °C 10 km+ 34.000 ft 250° 250° 15 kt METAR EHVL 161025Z AUTO 25015KT 9999 SCT008 SCT010 BKN340 22/18 Q1007 GRN
11:55
I
23 °C 10 km+ 700 ft 250° 250° 16 kt METAR EHVL 160955Z AUTO 25016KT 9999 BKN007 23/18 Q1006 GRN
11:25
I
22 °C 10 km+ 700 ft 250° 250° 15 kt METAR EHVL 160925Z AUTO 25015KT 9999 BKN007 22/18 Q1006 GRN
10:55
I
22 °C 10 km+ 600 ft 250° 250° 14 kt METAR EHVL 160855Z AUTO 25014KT 9999 BKN006 BKN340 22/19 Q1006 YLO
10:25
V
22 °C 10 km+ - 240° 240° 16 kt METAR EHVL 160825Z AUTO 24016KT 9999 SCT006 22/19 Q1006 YLO
10:03
I
21 °C 10 km+ 800 ft 240° 240° 18 kt METAR EHVL 160803Z AUTO 24018KT 9999 SCT006 BKN008 21/18 Q1005 YLO
09:55
V
22 °C 10 km+ - 240° 240° 17 kt METAR EHVL 160755Z AUTO 24017KT 9999 FEW006 SCT007 22/19 Q1005 GRN
09:43
V
21 °C 10 km+ 25.000 ft 240° 240° 19 kt METAR EHVL 160743Z AUTO 24019KT 9999 SCT007 BKN250 21/19 Q1005 GRN
09:25
V
21 °C 10 km+ 25.000 ft 240° 240° 19 kt METAR EHVL 160725Z AUTO 24019KT 9999 FEW008 OVC250 21/18 Q1005 BLU
09:13
V
21 °C 10 km+ 25.000 ft 240° 240° 19 kt METAR EHVL 160713Z AUTO 24019KT 9999 FEW008 OVC250 21/18 Q1005 BLU
09:07
V
21 °C 10 km+ 24.000 ft 230° 230° 20 kt METAR EHVL 160707Z AUTO 23020KT 9999 FEW008 SCT009 OVC240 21/19 Q1005 GRN
08:55
V
21 °C 10 km+ 27.000 ft 230° 230° 19 kt METAR EHVL 160655Z AUTO 23019KT 9999 FEW110 OVC270 21/19 Q1005 BLU
08:25
V
21 °C 10 km+ 11.000 ft 230° 230° 20 kt METAR EHVL 160625Z AUTO 23020KT 9999 BKN110 OVC310 21/19 Q1004 BLU
07:55
V
20 °C 10 km+ 28.000 ft 220° 220° 17 kt METAR EHVL 160555Z AUTO 22017KT 9999 BKN280 20/19 Q1004 BLU
07:25
V
20 °C 9 km 27.000 ft 210° 210° 12 kt METAR EHVL 160525Z AUTO 21012KT 9000 BR FEW100 OVC270 20/18 Q1004 BLU
07:15
V
20 °C 8 km 28.000 ft 210° 210° 12 kt METAR EHVL 160515Z AUTO 21012KT 8000 BR OVC280 20/18 Q1004 BLU
06:55
M
19 °C 6 km - 200° 200° 11 kt METAR EHVL 160455Z AUTO 20011KT 6000 BR SCT310 19/18 Q1004 WHT
06:25
M
19 °C 5 km 32.000 ft 190° 190° 11 kt METAR EHVL 160425Z AUTO 19011KT 5000 BR BKN320 19/18 Q1004 WHT
06:03
M
19 °C 7 km - 200° 200° 9 kt METAR EHVL 160403Z AUTO 20009KT 7000 BR NCD 19/18 Q1004 WHT
05:55
V
20 °C 9 km - 190° 190° 10 kt METAR EHVL 160355Z AUTO 19010KT 9000 BR NCD 20/18 Q1004 BLU
05:25
V
20 °C 10 km+ - 200° 200° 12 kt METAR EHVL 160325Z AUTO 20012KT 9999 NCD 20/18 Q1004 BLU
04:55
V
20 °C 9 km - 200° 200° 12 kt METAR EHVL 160255Z AUTO 20012KT 9000 BR NCD 20/18 Q1004 BLU
04:25
V
20 °C 9 km - 190° 190° 10 kt METAR EHVL 160225Z AUTO 19010KT 9000 BR FEW310 20/18 Q1004 BLU
03:55
V
20 °C 10 km+ - 190° 190° 11 kt METAR EHVL 160155Z AUTO 19011KT 9999 NCD 20/17 Q1004 BLU
03:25
V
21 °C 10 km+ - 190° 190° 12 kt METAR EHVL 160125Z AUTO 19012KT 9999 NCD 21/17 Q1004 BLU
02:55
V
21 °C 10 km+ 17.000 ft 200° 200° 11 kt METAR EHVL 160055Z AUTO 20011KT 9999 OVC170 21/18 Q1004 BLU
02:25
V
21 °C 10 km+ 26.000 ft 190° 190° 8 kt METAR EHVL 160025Z AUTO 19008KT 9999 SCT150 OVC260 21/18 Q1004 BLU
01:25
V
22 °C 10 km+ 14.000 ft 190° 190° 8 kt METAR EHVL 152325Z AUTO 19008KT 9999 FEW043 OVC140 22/19 Q1005 BLU
00:55
V
21 °C 10 km+ 13.000 ft 190° 190° 7 kt METAR EHVL 152255Z AUTO 19007KT 9999 OVC130 21/19 Q1005 BLU
00:25
V
21 °C 10 km+ 13.000 ft 190° 190° 7 kt METAR EHVL 152225Z AUTO 19007KT 9999 OVC130 21/18 Q1005 BLU

15 sierpnia 2022

Czas Kod Pogoda Temp. Widoczność Sufit Wiatr METAR/SPECI
23:55
V
20 °C 10 km+ 11.000 ft 180° 180° 5 kt METAR EHVL 152155Z AUTO 18005KT 9999 OVC110 20/18 Q1005 BLU
23:25
V
20 °C 10 km+ 14.000 ft 170° 170° 4 kt METAR EHVL 152125Z AUTO 17004KT 9999 OVC140 20/18 Q1005 BLU
22:55
V
21 °C 10 km+ 13.000 ft 180° 180° 8 kt METAR EHVL 152055Z AUTO 18008KT 9999 BKN130 BKN350 21/18 Q1004 BLU
22:25
V
21 °C 10 km+ 14.000 ft 180° 180° 7 kt METAR EHVL 152025Z AUTO 18007KT 9999 OVC140 21/18 Q1004 BLU
21:55
V
21 °C 10 km+ 13.000 ft 200° 200° 6 kt METAR EHVL 151955Z AUTO 20006KT 9999 OVC130 21/18 Q1004 BLU
21:25
V
21 °C 10 km+ 13.000 ft 200° 200° 8 kt METAR EHVL 151925Z AUTO 20008KT 9999 OVC130 21/18 Q1004 BLU
20:55
V
21 °C 10 km+ 13.000 ft 210° 210° 7 kt METAR EHVL 151855Z AUTO 21007KT 9999 OVC130 21/18 Q1004 BLU
20:25
V
22 °C 10 km+ 12.000 ft 230° 230° 8 kt METAR EHVL 151825Z AUTO 23008KT 9999 OVC120 22/17 Q1004 BLU
19:55
V
22 °C 10 km+ 13.000 ft 230° 230° 8 kt METAR EHVL 151755Z AUTO 23008KT 9999 OVC130 22/17 Q1004 BLU
19:25
V
22 °C 10 km+ 11.000 ft 240° 240° 10 kt METAR EHVL 151725Z AUTO 24010KT 9999 OVC110 22/17 Q1004 BLU
18:55
V
22 °C 10 km+ 12.000 ft 240° 240° 10 kt METAR EHVL 151655Z AUTO 24010KT 9999 OVC120 22/18 Q1003 BLU
18:25
V
22 °C 10 km+ 11.000 ft 240° 240° 12 kt METAR EHVL 151625Z AUTO 24012KT 9999 OVC110 22/18 Q1003 BLU
17:55
V
23 °C 10 km+ 33.000 ft 250° 250° 12 kt METAR EHVL 151555Z AUTO 25012KT 9999 OVC330 23/19 Q1003 BLU
17:25
V
22 °C 10 km+ 12.000 ft 250° 250° 14 kt METAR EHVL 151525Z AUTO 25014KT 9999 OVC120 22/18 Q1004 BLU
16:55
V
22 °C 10 km+ 11.000 ft 240° 240° 16 kt METAR EHVL 151455Z AUTO 24016KT 9999 OVC110 22/18 Q1003 BLU
16:25
V
23 °C 10 km+ 10.000 ft 230° 230° 15 kt METAR EHVL 151425Z AUTO 23015KT 9999 FEW065 SCT087 OVC100 23/18 Q1003 BLU
15:55
V
24 °C 10 km+ 16.000 ft 250° 250° 10 kt METAR EHVL 151355Z AUTO 25010KT 210V290 9999 BKN160 OVC280 24/18 Q1003 BLU
15:25
V
24 °C 10 km+ 28.000 ft 280° 280° 7 kt METAR EHVL 151325Z AUTO 28007KT 240V310 9999 OVC280 24/18 Q1003 BLU
14:55
V
24 °C 10 km+ 28.000 ft 280° 280° 6 kt METAR EHVL 151255Z AUTO 28006KT 240V320 9999 OVC280 24/18 Q1004 BLU
14:25
V
23 °C 10 km+ 7.700 ft 290° 290° 5 kt METAR EHVL 151225Z AUTO 29005KT 240V330 9999 SCT071 BKN077 BKN083 23/18 Q1003 BLU
13:55
V
24 °C 10 km+ 14.000 ft 290° 290° 9 kt METAR EHVL 151155Z AUTO 29009KT 9999 OVC140 24/18 Q1003 BLU
13:25
V
24 °C 10 km+ 30.000 ft 290° 290° 11 kt METAR EHVL 151125Z AUTO 29011KT 9999 SCT092 BKN300 BKN350 24/18 Q1002 BLU
12:55
V
24 °C 10 km+ 31.000 ft 280° 280° 10 kt METAR EHVL 151055Z AUTO 28010KT 9999 BKN310 OVC360 24/18 Q1002 BLU
12:25
V
24 °C 10 km+ 31.000 ft 270° 270° 11 kt METAR EHVL 151025Z AUTO 27011KT 9999 OVC310 24/18 Q1003 BLU
11:55
V
24 °C 10 km+ 25.000 ft 280° 280° 11 kt METAR EHVL 150955Z AUTO 28011KT 9999 FEW099 OVC250 24/18 Q1002 BLU
11:25
V
24 °C 10 km+ 17.000 ft 270° 270° 12 kt METAR EHVL 150925Z AUTO 27012KT 9999 OVC170 24/19 Q1002 BLU
10:55
V
23 °C 10 km+ 12.000 ft 260° 260° 15 kt METAR EHVL 150855Z AUTO 26015KT 9999 OVC120 23/18 Q1002 BLU
10:25
V
22 °C 10 km+ 10.000 ft 250° 250° 14 kt METAR EHVL 150825Z AUTO 25014KT 9999 OVC100 22/19 Q1002 BLU
09:55
V
24 °C 10 km+ 10.000 ft 220° 220° 5 kt METAR EHVL 150755Z AUTO 22005KT 9999 OVC100 24/20 Q1002 BLU
09:25
V
24 °C 10 km+ 10.000 ft 200° 200° 3 kt METAR EHVL 150725Z AUTO 20003KT 9999 OVC100 24/20 Q1002 BLU
08:55
V
24 °C 10 km+ 10.000 ft 170° 170° 5 kt METAR EHVL 150655Z AUTO 17005KT 150V210 9999 OVC100 24/19 Q1002 BLU
08:38
V
23 °C 8 km 21.000 ft 150° 150° 6 kt METAR EHVL 150638Z AUTO 15006KT 8000 BR OVC210 23/19 Q1002 BLU
08:25
V
23 °C 10 km+ 22.000 ft 110° 110° 7 kt METAR EHVL 150625Z AUTO 11007KT 9999 OVC220 23/20 Q1002 BLU
08:15
V
22 °C 8 km 22.000 ft 100° 100° 7 kt METAR EHVL 150615Z AUTO 10007KT 060V120 8000 BR FEW110 OVC220 22/20 Q1002 BLU
08:14
M
22 °C 6 km 22.000 ft 090° 090° 6 kt METAR EHVL 150614Z AUTO 09006KT 060V120 6000 BR SCT110 OVC220 22/21 Q1002 WHT
07:55
V
21 °C 10 km+ 11.000 ft 080° 080° 6 kt METAR EHVL 150555Z AUTO 08006KT 9999 BKN110 OVC220 21/20 Q1002 BLU
07:33
V
21 °C 9 km 11.000 ft 070° 070° 6 kt METAR EHVL 150533Z AUTO 07006KT 9000 BR BKN110 OVC220 21/20 Q1002 BLU
07:28
M
21 °C 7 km 11.000 ft 080° 080° 6 kt METAR EHVL 150528Z AUTO 08006KT 7000 BR BKN110 OVC220 21/20 Q1002 WHT
07:25
V
21 °C 8 km 11.000 ft 070° 070° 5 kt METAR EHVL 150525Z AUTO 07005KT 040V100 8000 BR BKN110 OVC230 21/20 Q1002 BLU
07:08
I
20 °C 3,5 km 22.000 ft 060° 060° 4 kt METAR EHVL 150508Z AUTO 06004KT 3500 BR FEW120 OVC220 20/20 Q1002 YLO
07:07
M
20 °C 6 km 22.000 ft 060° 060° 4 kt METAR EHVL 150507Z AUTO 06004KT 6000 BR FEW120 OVC220 20/20 Q1002 WHT
06:59
I
20 °C 2,9 km 22.000 ft 080° 080° 6 kt METAR EHVL 150459Z AUTO 08006KT 2900 BR FEW120 OVC220 20/19 Q1002 YLO
06:55
V
20 °C 10 km+ 22.000 ft 090° 090° 6 kt METAR EHVL 150455Z AUTO 09006KT 9999 OVC220 20/19 Q1002 BLU
06:25
V
20 °C 10 km+ 23.000 ft 090° 090° 7 kt METAR EHVL 150425Z AUTO 09007KT 9999 OVC230 20/19 Q1002 BLU
05:55
V
21 °C 10 km+ 25.000 ft 090° 090° 7 kt METAR EHVL 150355Z AUTO 09007KT 9999 BKN250 OVC350 21/20 Q1002 BLU
05:25
V
20 °C 10 km+ 24.000 ft 080° 080° 7 kt METAR EHVL 150325Z AUTO 08007KT 9999 BKN240 OVC350 20/19 Q1002 BLU
04:55
V
20 °C 10 km+ 23.000 ft 070° 070° 7 kt METAR EHVL 150255Z AUTO 07007KT 9999 BKN230 OVC340 20/20 Q1002 BLU
04:37
V
20 °C 8 km 28.000 ft 060° 060° 5 kt METAR EHVL 150237Z AUTO 06005KT 8000 BR BKN280 OVC340 20/19 Q1003 BLU
04:30
M
20 °C 7 km 34.000 ft 060° 060° 5 kt METAR EHVL 150230Z AUTO 06005KT 7000 BR FEW230 OVC340 20/19 Q1003 WHT
04:29
V
20 °C 9 km 23.000 ft 070° 070° 5 kt METAR EHVL 150229Z AUTO 07005KT 9000 BR BKN230 OVC340 20/19 Q1003 BLU
04:25
M
20 °C 7 km 23.000 ft 070° 070° 5 kt METAR EHVL 150225Z AUTO 07005KT 7000 BR BKN230 OVC350 20/19 Q1003 WHT
03:55
V
20 °C 10 km+ 35.000 ft 090° 090° 5 kt METAR EHVL 150155Z AUTO 09005KT 9999 OVC350 20/19 Q1003 BLU
03:25
V
21 °C 10 km+ 24.000 ft 020° 020° 4 kt METAR EHVL 150125Z AUTO 02004KT 350V060 9999 BKN240 OVC350 21/20 Q1003 BLU
02:55
V
21 °C 10 km+ 35.000 ft 080° 080° 7 kt METAR EHVL 150055Z AUTO 08007KT 9999 FEW098 OVC350 21/20 Q1003 BLU
02:25
V
22 °C 10 km+ 25.000 ft 080° 080° 7 kt METAR EHVL 150025Z AUTO 08007KT 9999 OVC250 22/21 Q1003 BLU
01:55
V
22 °C 10 km+ 9.900 ft 080° 080° 7 kt METAR EHVL 142355Z AUTO 08007KT 9999 BKN099 OVC250 22/21 Q1004 BLU
01:25
V
22 °C 10 km+ 8.800 ft 080° 080° 8 kt METAR EHVL 142325Z AUTO 08008KT 9999 OVC088 22/21 Q1004 BLU
00:55
V
22 °C 10 km+ 27.000 ft 080° 080° 8 kt METAR EHVL 142255Z AUTO 08008KT 9999 OVC270 22/20 Q1004 BLU
00:25
V
22 °C 10 km+ 27.000 ft 070° 070° 9 kt METAR EHVL 142225Z AUTO 07009KT 9999 OVC270 22/20 Q1004 BLU

14 sierpnia 2022

Czas Kod Pogoda Temp. Widoczność Sufit Wiatr METAR/SPECI
23:55
V
22 °C 10 km+ 27.000 ft 070° 070° 9 kt METAR EHVL 142155Z AUTO 07009KT 9999 OVC270 22/20 Q1005 BLU
23:25
V
22 °C 10 km+ 26.000 ft 060° 060° 7 kt METAR EHVL 142125Z AUTO 06007KT 9999 OVC260 22/20 Q1005 BLU
22:55
V
22 °C 10 km+ 28.000 ft 070° 070° 8 kt METAR EHVL 142055Z AUTO 07008KT 9999 OVC280 22/20 Q1005 BLU
22:25
V
22 °C 10 km+ 28.000 ft 060° 060° 7 kt METAR EHVL 142025Z AUTO 06007KT 9999 OVC280 22/19 Q1005 BLU
21:55
V
22 °C 10 km+ 27.000 ft 060° 060° 7 kt METAR EHVL 141955Z AUTO 06007KT 9999 OVC270 22/19 Q1005 BLU
21:25
V
23 °C 10 km+ 29.000 ft 070° 070° 8 kt METAR EHVL 141925Z AUTO 07008KT 9999 OVC290 23/19 Q1005 BLU
20:55
V
24 °C 10 km+ 28.000 ft 070° 070° 9 kt METAR EHVL 141855Z AUTO 07009KT 9999 OVC280 24/20 Q1005 BLU
20:25
V
25 °C 10 km+ 28.000 ft 070° 070° 9 kt METAR EHVL 141825Z AUTO 07009KT 9999 OVC280 25/20 Q1005 BLU
19:55
V
25 °C 10 km+ 29.000 ft 070° 070° 8 kt METAR EHVL 141755Z AUTO 07008KT 9999 OVC290 25/21 Q1005 BLU
19:25
V
26 °C 10 km+ 30.000 ft 070° 070° 7 kt METAR EHVL 141725Z AUTO 07007KT 9999 OVC300 26/21 Q1006 BLU
18:55
V
27 °C 10 km+ 31.000 ft 080° 080° 9 kt METAR EHVL 141655Z AUTO 08009KT 9999 OVC310 27/21 Q1006 BLU
18:25
V
27 °C 10 km+ 32.000 ft 070° 070° 8 kt METAR EHVL 141625Z AUTO 07008KT 9999 OVC320 27/20 Q1006 BLU
17:55
V
28 °C 10 km+ 34.000 ft 080° 080° 8 kt METAR EHVL 141555Z AUTO 08008KT 9999 OVC340 28/19 Q1006 BLU
17:25
V
28 °C 10 km+ 34.000 ft 080° 080° 9 kt METAR EHVL 141525Z AUTO 08009KT 050V110 9999 BKN340 28/19 Q1007 BLU
16:55
V
29 °C 10 km+ 34.000 ft 090° 090° 7 kt METAR EHVL 141455Z AUTO 09007KT 9999 BKN340 29/19 Q1007 BLU
16:25
V
29 °C 10 km+ - 090° 090° 7 kt METAR EHVL 141425Z AUTO 09007KT 050V110 9999 NCD 29/17 Q1007 BLU
15:55
V
28 °C 10 km+ 37.000 ft 090° 090° 8 kt METAR EHVL 141355Z AUTO 09008KT 9999 OVC370 28/17 Q1007 BLU
15:25
V
28 °C 10 km+ 35.000 ft 090° 090° 8 kt METAR EHVL 141325Z AUTO 09008KT 9999 OVC350 28/18 Q1008 BLU
14:55
V
28 °C 10 km+ 36.000 ft 090° 090° 9 kt METAR EHVL 141255Z AUTO 09009KT 060V120 9999 BKN360 28/19 Q1008 BLU
Starsze dane

My i osoby trzecie śledzimy twoje zachowanie w internecie na naszej stronie za pomocą plików cookie. Jeśli kontynuujesz, zakładamy, że zgadzasz się z naszą polityką plików cookie. Dowiedz się więcej